Blevins, Texas
Current Conditions -  °F | °C
As of 9:35 AM on Friday 28 Nov 2014 (Local Time) from KTPL Reporting Station
Overcast Overcast  
Wind Chill: 50°   Ceiling: 3300
Heat Index: 50°   Visibility: 10mi
Dew Point: 41°   Wind: 15mph
Humidity: 71%   Direction: 170°S
Pressure: 30.28"   Gusts: NA
Location:  31.265°N, 97.2164°W
Report Text: KTPL 281535Z AUTO 17013KT 10SM FEW021 OVC033 10/05 A3028 RMK AO1
Loading
Personal Weather Stations






























Interactive Weather Map New forecast layout! Learn more

10-Day Weather Forecast

Advertisements
Track Severe Weather on mobile